Time;durP1;ratioP1;P1;durP2;ratioP2;P2;SDS_P1;SDS_P2;PMS_P1;PMS_P2;Temp;Humidity;BMP_temperature;BMP_pressure;BME280_temperature;BME280_humidity;BME280_pressure;Samples;Min_cycle;Max_cycle;Signal;HPM_P1;HPM_P2
2023/07/10 00:00:24;;;;;;;18.40;13.15;;;20.60;99.90;;;;;;5053242;28;20071;-75
2023/07/10 00:02:50;;;;;;;20.00;12.45;;;20.60;99.90;;;;;;5041556;28;20036;-75
2023/07/10 00:05:19;;;;;;;17.83;11.52;;;20.50;99.90;;;;;;5033478;28;20026;-77
2023/07/10 00:07:45;;;;;;;17.27;11.23;;;20.50;99.90;;;;;;5033350;28;20025;-75
2023/07/10 00:10:14;;;;;;;17.30;11.65;;;20.50;99.90;;;;;;5033437;28;20128;-75
2023/07/10 00:12:42;;;;;;;16.02;10.70;;;20.40;99.90;;;;;;5033377;28;20040;-75
2023/07/10 00:15:21;;;;;;;18.33;12.10;;;20.40;99.90;;;;;;5033512;28;20040;-75
2023/07/10 00:17:50;;;;;;;16.35;11.70;;;20.40;99.90;;;;;;5040400;28;20132;-75
2023/07/10 00:20:21;;;;;;;20.20;12.23;;;20.40;99.90;;;;;;5032061;28;20052;-76
2023/07/10 00:22:47;;;;;;;18.17;11.93;;;20.40;99.90;;;;;;5046323;28;20382;-76
2023/07/10 00:25:17;;;;;;;18.17;11.70;;;20.30;99.90;;;;;;5051910;28;20017;-74
2023/07/10 00:27:51;;;;;;;18.58;12.05;;;20.40;99.90;;;;;;5053077;28;20410;-76
2023/07/10 00:30:23;;;;;;;17.58;12.00;;;20.30;99.90;;;;;;5035297;28;20432;-76
2023/07/10 00:32:53;;;;;;;17.60;12.27;;;20.30;99.90;;;;;;5051972;28;20040;-76
2023/07/10 00:35:20;;;;;;;18.23;11.00;;;20.30;99.90;;;;;;5053073;28;20099;-77
2023/07/10 00:38:00;;;;;;;22.60;12.07;;;20.30;99.90;;;;;;5053080;28;20091;-76
2023/07/10 00:40:27;;;;;;;16.90;10.43;;;20.30;99.90;;;;;;5051982;28;20070;-76
2023/07/10 00:43:05;;;;;;;16.50;9.70;;;20.30;99.90;;;;;;5035177;28;20037;-75
2023/07/10 00:45:31;;;;;;;16.05;9.88;;;20.30;99.90;;;;;;5037152;28;20028;-76
2023/07/10 00:48:11;;;;;;;17.13;10.45;;;20.30;99.90;;;;;;5039732;28;20026;-76
2023/07/10 00:50:48;;;;;;;19.10;9.57;;;20.40;99.90;;;;;;5049203;28;20033;-76
2023/07/10 00:53:27;;;;;;;13.88;8.43;;;20.30;99.90;;;;;;5035781;28;20433;-76
2023/07/10 00:55:56;;;;;;;14.85;8.32;;;20.30;99.90;;;;;;5035649;28;20025;-76
2023/07/10 00:58:32;;;;;;;19.30;9.38;;;20.30;99.90;;;;;;5036898;28;20471;-76
2023/07/10 01:00:59;;;;;;;15.13;9.07;;;20.30;99.90;;;;;;5037005;28;20037;-76
2023/07/10 01:03:24;;;;;;;17.85;10.55;;;20.30;99.90;;;;;;5035594;28;20397;-76
2023/07/10 01:05:50;;;;;;;15.02;9.57;;;20.40;99.90;;;;;;5037800;28;20029;-75
2023/07/10 01:08:16;;;;;;;18.20;9.85;;;20.30;99.90;;;;;;5036858;28;20542;-76
2023/07/10 01:10:42;;;;;;;17.73;10.18;;;20.30;99.90;;;;;;5019067;28;20034;-76
2023/07/10 01:13:07;;;;;;;14.07;9.02;;;20.30;99.90;;;;;;5036595;28;20033;-76
2023/07/10 01:15:33;;;;;;;17.63;10.65;;;20.30;99.90;;;;;;5035484;28;20037;-75
2023/07/10 01:17:59;;;;;;;14.90;9.18;;;20.20;99.90;;;;;;5036528;28;20397;-75
2023/07/10 01:21:26;;;;;;;14.52;9.00;;;20.20;99.90;;;;;;5036321;28;20022;-75
2023/07/10 01:23:53;;;;;;;17.90;10.27;;;20.20;99.90;;;;;;5015667;28;20037;-76
2023/07/10 01:26:18;;;;;;;16.58;8.35;;;20.10;99.90;;;;;;5037470;28;20021;-76
2023/07/10 01:28:44;;;;;;;16.27;9.63;;;20.10;99.90;;;;;;5036233;28;20460;-76
2023/07/10 01:31:13;;;;;;;16.45;9.40;;;20.10;99.90;;;;;;5036310;28;20033;-75
2023/07/10 01:33:45;;;;;;;16.52;8.63;;;20.00;99.90;;;;;;5036502;28;20189;-76
2023/07/10 01:36:14;;;;;;;11.55;7.18;;;20.00;99.90;;;;;;5036163;28;20389;-76
2023/07/10 01:38:49;;;;;;;14.43;7.97;;;20.00;99.90;;;;;;5036009;28;20026;-76
2023/07/10 01:41:18;;;;;;;13.43;6.85;;;20.00;99.90;;;;;;5036096;28;20029;-76
2023/07/10 01:43:43;;;;;;;14.40;7.45;;;19.90;99.90;;;;;;5036202;28;20025;-75
2023/07/10 01:46:21;;;;;;;11.57;6.53;;;19.90;99.90;;;;;;5050205;28;20025;-75
2023/07/10 01:48:48;;;;;;;11.63;5.65;;;19.90;99.90;;;;;;5055918;28;20035;-76
2023/07/10 01:51:13;;;;;;;9.27;4.75;;;19.90;99.90;;;;;;5055949;28;20033;-76
2023/07/10 01:53:41;;;;;;;9.57;4.82;;;19.90;99.90;;;;;;5055772;28;20079;-76
2023/07/10 01:56:07;;;;;;;11.35;4.78;;;19.90;99.90;;;;;;5046031;28;20044;-76
2023/07/10 01:58:33;;;;;;;13.55;5.15;;;19.90;99.90;;;;;;5034380;28;20386;-76
2023/07/10 02:00:58;;;;;;;10.80;4.78;;;19.90;99.90;;;;;;5035727;28;20033;-76
2023/07/10 02:03:24;;;;;;;10.40;4.97;;;19.90;99.90;;;;;;5035853;28;20456;-76
2023/07/10 02:05:49;;;;;;;9.02;4.30;;;19.90;99.90;;;;;;5034386;28;20021;-76
2023/07/10 02:08:15;;;;;;;12.05;4.22;;;19.90;99.90;;;;;;5035575;28;20038;-76
2023/07/10 02:10:41;;;;;;;8.52;3.97;;;19.90;99.90;;;;;;5034386;28;20029;-76
2023/07/10 02:13:06;;;;;;;8.27;4.38;;;19.90;99.90;;;;;;5035436;28;20038;-76
2023/07/10 02:15:32;;;;;;;8.38;4.10;;;19.80;99.90;;;;;;5035496;28;20041;-76
2023/07/10 02:17:57;;;;;;;8.52;2.97;;;19.80;99.90;;;;;;5035589;28;20473;-76
2023/07/10 02:20:24;;;;;;;8.27;3.65;;;19.80;99.90;;;;;;5034219;28;20057;-76
2023/07/10 02:22:51;;;;;;;9.27;2.85;;;19.80;99.90;;;;;;5035338;28;20040;-76
2023/07/10 02:25:16;;;;;;;7.50;3.45;;;19.70;99.90;;;;;;5046356;28;20013;-76
2023/07/10 02:27:42;;;;;;;6.30;3.30;;;19.80;99.90;;;;;;5040597;28;20474;-76
2023/07/10 02:30:08;;;;;;;10.75;3.53;;;19.70;99.90;;;;;;5035434;28;20029;-76
2023/07/10 02:32:34;;;;;;;7.60;3.47;;;19.70;99.90;;;;;;5035211;28;20026;-76
2023/07/10 02:34:59;;;;;;;8.40;2.97;;;19.70;99.90;;;;;;5039398;28;20039;-76
2023/07/10 02:37:25;;;;;;;6.53;2.95;;;19.70;99.90;;;;;;5054985;28;20033;-76
2023/07/10 02:39:51;;;;;;;8.32;3.00;;;19.70;99.90;;;;;;5054962;28;20440;-76
2023/07/10 02:42:16;;;;;;;8.88;2.97;;;19.70;99.90;;;;;;5053699;28;20029;-76
2023/07/10 02:44:42;;;;;;;5.55;2.25;;;19.80;99.90;;;;;;5053250;28;20387;-76
2023/07/10 02:47:07;;;;;;;6.50;2.60;;;19.70;99.90;;;;;;5054959;28;20044;-83
2023/07/10 02:49:33;;;;;;;6.78;2.30;;;19.70;99.90;;;;;;5053784;28;20080;-84
2023/07/10 02:51:59;;;;;;;6.75;2.13;;;19.70;99.90;;;;;;5054474;28;20108;-83
2023/07/10 02:54:24;;;;;;;4.50;2.38;;;19.70;99.90;;;;;;5053719;28;20037;-83
2023/07/10 02:56:50;;;;;;;8.02;2.47;;;19.70;99.90;;;;;;5054774;28;20057;-83
2023/07/10 02:59:15;;;;;;;7.03;2.47;;;19.70;99.90;;;;;;5053368;28;20049;-83
2023/07/10 03:01:41;;;;;;;6.60;2.70;;;19.70;99.90;;;;;;5054824;28;20036;-84
2023/07/10 03:04:07;;;;;;;11.75;2.83;;;19.70;99.90;;;;;;5036751;28;20112;-84
2023/07/10 03:06:32;;;;;;;5.75;2.83;;;19.70;99.90;;;;;;5053959;28;20029;-84
2023/07/10 03:08:58;;;;;;;6.05;2.70;;;19.60;99.90;;;;;;5036609;28;20036;-83
2023/07/10 03:11:24;;;;;;;8.57;3.22;;;19.60;99.90;;;;;;5053364;28;20032;-83
2023/07/10 03:13:52;;;;;;;11.13;2.80;;;19.60;99.90;;;;;;5054810;28;20044;-84
2023/07/10 03:16:17;;;;;;;6.82;3.13;;;19.60;99.90;;;;;;5053166;28;20032;-83
2023/07/10 03:18:43;;;;;;;6.53;3.22;;;19.60;99.90;;;;;;5052715;28;20037;-84
2023/07/10 03:21:09;;;;;;;9.30;3.70;;;19.60;99.90;;;;;;5054192;28;20033;-83
2023/07/10 03:23:37;;;;;;;9.20;3.50;;;19.60;99.90;;;;;;5052765;28;20032;-76
2023/07/10 03:26:02;;;;;;;9.07;3.38;;;19.50;99.90;;;;;;5054017;28;20029;-76
2023/07/10 03:28:28;;;;;;;8.45;3.75;;;19.60;99.90;;;;;;5054060;28;20094;-75
2023/07/10 03:30:53;;;;;;;10.40;4.25;;;19.60;99.90;;;;;;5054084;28;20035;-76
2023/07/10 03:33:19;;;;;;;10.27;4.65;;;19.60;99.90;;;;;;5053745;28;20037;-76
2023/07/10 03:35:49;;;;;;;8.77;4.60;;;19.50;99.90;;;;;;5052565;28;20040;-75
2023/07/10 03:38:16;;;;;;;8.73;4.25;;;19.50;99.90;;;;;;5052522;28;20438;-75
2023/07/10 03:40:52;;;;;;;9.88;5.60;;;19.50;99.90;;;;;;5053990;28;20116;-76
2023/07/10 03:43:18;;;;;;;10.90;5.93;;;19.50;99.90;;;;;;5053895;28;20024;-76
2023/07/10 03:45:44;;;;;;;10.95;6.22;;;19.50;99.90;;;;;;5053825;28;20085;-76
2023/07/10 03:48:10;;;;;;;13.25;5.80;;;19.50;99.90;;;;;;5053593;28;20036;-76
2023/07/10 03:50:36;;;;;;;11.93;5.78;;;19.50;99.90;;;;;;5053429;28;20122;-76
2023/07/10 03:53:01;;;;;;;10.05;5.50;;;19.40;99.90;;;;;;5053727;28;20512;-76
2023/07/10 03:55:27;;;;;;;11.95;5.70;;;19.40;99.90;;;;;;5053825;28;20489;-76
2023/07/10 03:57:53;;;;;;;9.95;6.18;;;19.40;99.90;;;;;;5052156;28;20052;-76
2023/07/10 04:00:18;;;;;;;9.85;5.88;;;19.30;99.90;;;;;;5053165;28;20103;-76
2023/07/10 04:02:44;;;;;;;12.73;6.35;;;19.30;99.90;;;;;;5020283;28;20043;-76
2023/07/10 04:05:09;;;;;;;11.75;6.07;;;19.30;99.90;;;;;;5033429;28;20056;-76
2023/07/10 04:07:35;;;;;;;11.18;6.32;;;19.30;99.90;;;;;;5033466;28;20060;-76
2023/07/10 04:10:02;;;;;;;12.13;6.05;;;19.20;99.90;;;;;;5032229;28;20026;-75
2023/07/10 04:12:28;;;;;;;12.52;6.63;;;19.20;99.90;;;;;;5033601;28;20040;-76
2023/07/10 04:14:53;;;;;;;10.75;5.72;;;19.20;99.90;;;;;;5033377;28;20033;-75
2023/07/10 04:17:19;;;;;;;9.60;5.75;;;19.20;99.90;;;;;;5031975;28;20037;-75
2023/07/10 04:19:45;;;;;;;9.48;5.82;;;19.20;99.90;;;;;;5032780;28;20024;-75
2023/07/10 04:22:10;;;;;;;10.15;6.13;;;19.20;99.90;;;;;;5033371;28;20104;-75
2023/07/10 04:24:36;;;;;;;9.30;5.82;;;19.20;99.90;;;;;;5032329;28;20033;-75
2023/07/10 04:27:01;;;;;;;11.82;5.88;;;19.10;99.80;;;;;;5031973;28;20071;-75
2023/07/10 04:29:27;;;;;;;11.02;4.85;;;19.10;99.80;;;;;;5033263;28;20068;-75
2023/07/10 04:31:53;;;;;;;11.73;5.30;;;19.10;99.70;;;;;;5052219;28;20021;-75
2023/07/10 04:34:19;;;;;;;10.57;5.25;;;19.10;99.60;;;;;;5053131;28;20017;-75
2023/07/10 04:36:44;;;;;;;7.70;4.53;;;19.10;99.60;;;;;;5053086;28;20021;-75
2023/07/10 04:39:10;;;;;;;9.70;4.50;;;19.10;99.50;;;;;;5053000;28;20029;-76
2023/07/10 04:41:37;;;;;;;8.75;3.88;;;19.10;99.50;;;;;;5053092;28;20114;-75
2023/07/10 04:44:03;;;;;;;8.15;4.00;;;19.00;99.40;;;;;;5052733;28;20048;-75
2023/07/10 04:46:29;;;;;;;9.27;3.70;;;19.00;99.30;;;;;;5053023;28;20029;-76
2023/07/10 04:48:56;;;;;;;10.45;3.97;;;19.00;99.20;;;;;;5052926;28;20469;-75
2023/07/10 04:51:22;;;;;;;9.93;3.65;;;19.00;99.10;;;;;;5053344;28;20446;-75
2023/07/10 04:53:48;;;;;;;9.93;3.17;;;18.90;99.00;;;;;;5051672;28;20033;-75
2023/07/10 04:56:16;;;;;;;8.20;3.65;;;18.90;98.90;;;;;;5051532;28;20108;-75
2023/07/10 04:58:57;;;;;;;10.40;3.20;;;18.90;98.90;;;;;;5052490;28;20441;-76
2023/07/10 05:01:26;;;;;;;7.90;3.13;;;18.90;98.90;;;;;;5052901;28;20037;-75
2023/07/10 05:03:52;;;;;;;11.85;3.80;;;18.90;98.90;;;;;;5051581;28;20210;-75
2023/07/10 05:06:19;;;;;;;9.73;3.03;;;19.00;98.80;;;;;;5052796;28;20021;-75
2023/07/10 05:08:45;;;;;;;9.23;3.30;;;18.90;98.70;;;;;;5052742;28;20035;-75
2023/07/10 05:11:11;;;;;;;8.57;3.25;;;18.80;98.70;;;;;;5052700;28;20495;-75
2023/07/10 05:13:37;;;;;;;7.85;3.35;;;18.80;98.70;;;;;;5050722;28;20029;-75
2023/07/10 05:16:03;;;;;;;9.93;3.38;;;18.80;98.70;;;;;;5047159;28;20362;-75
2023/07/10 05:18:31;;;;;;;5.60;2.70;;;18.70;98.70;;;;;;5050485;28;20029;-75
2023/07/10 05:20:59;;;;;;;8.82;3.35;;;18.70;98.70;;;;;;5045721;28;20029;-75
2023/07/10 05:23:25;;;;;;;10.80;3.20;;;18.60;98.70;;;;;;5051199;28;20025;-75
2023/07/10 05:25:57;;;;;;;9.05;3.47;;;18.60;98.80;;;;;;5052306;28;20025;-75
2023/07/10 05:28:23;;;;;;;10.10;3.42;;;18.60;98.80;;;;;;5043334;28;20033;-76
2023/07/10 05:30:49;;;;;;;7.40;3.33;;;18.70;98.90;;;;;;5029027;28;20389;-75
2023/07/10 05:33:15;;;;;;;7.90;2.78;;;18.70;98.90;;;;;;5055038;28;20025;-76
2023/07/10 05:35:51;;;;;;;10.38;3.10;;;18.70;99.10;;;;;;5054326;28;20041;-76
2023/07/10 05:38:17;;;;;;;7.60;3.53;;;18.80;98.90;;;;;;5043773;28;20108;-75
2023/07/10 05:40:42;;;;;;;6.63;3.17;;;18.80;98.80;;;;;;5030609;28;20119;-75
2023/07/10 05:43:08;;;;;;;6.13;3.65;;;18.80;98.80;;;;;;5045344;28;20108;-75
2023/07/10 05:45:34;;;;;;;8.05;3.55;;;18.80;98.70;;;;;;5038369;28;20040;-75
2023/07/10 05:47:59;;;;;;;7.28;3.65;;;18.80;98.70;;;;;;5056106;28;20036;-77
2023/07/10 05:50:25;;;;;;;11.45;3.92;;;18.80;98.70;;;;;;5054814;28;20025;-78
2023/07/10 05:52:50;;;;;;;11.35;3.65;;;18.80;98.80;;;;;;5055817;28;20060;-78
2023/07/10 05:55:16;;;;;;;10.77;3.67;;;18.80;98.80;;;;;;5036512;28;20036;-78
2023/07/10 05:57:42;;;;;;;10.73;3.22;;;18.80;98.70;;;;;;5044112;28;20394;-78
2023/07/10 06:00:08;;;;;;;9.52;3.53;;;18.80;98.70;;;;;;5042554;28;20058;-78
2023/07/10 06:02:33;;;;;;;7.90;3.08;;;18.90;98.60;;;;;;5032075;28;20029;-79
2023/07/10 06:04:59;;;;;;;9.48;3.28;;;18.80;98.50;;;;;;5054260;28;20029;-78
2023/07/10 06:07:26;;;;;;;8.68;3.78;;;18.90;98.60;;;;;;5037731;28;20029;-78
2023/07/10 06:09:52;;;;;;;9.32;3.28;;;18.90;98.40;;;;;;5037338;28;20453;-78
2023/07/10 06:12:17;;;;;;;7.50;3.03;;;18.90;98.10;;;;;;5055734;28;20059;-77
2023/07/10 06:14:43;;;;;;;7.28;3.08;;;19.00;98.10;;;;;;5051738;28;20039;-78
2023/07/10 06:17:08;;;;;;;6.63;2.33;;;19.00;98.10;;;;;;5010684;28;20547;-79
2023/07/10 06:19:34;;;;;;;9.32;2.45;;;19.00;98.10;;;;;;5021665;28;20025;-78
2023/07/10 06:22:08;;;;;;;14.68;2.97;;;19.00;97.90;;;;;;5016962;28;20025;-77
2023/07/10 06:24:34;;;;;;;8.30;2.35;;;19.10;97.80;;;;;;5038885;28;20556;-77
2023/07/10 06:27:00;;;;;;;8.23;3.08;;;19.10;97.70;;;;;;5041449;28;20108;-78
2023/07/10 06:29:26;;;;;;;8.20;2.47;;;19.20;97.70;;;;;;5035346;28;20488;-78
2023/07/10 06:31:51;;;;;;;8.82;2.08;;;19.20;97.50;;;;;;5049008;28;20551;-79
2023/07/10 06:34:17;;;;;;;7.43;2.20;;;19.20;97.00;;;;;;5046261;28;20470;-78
2023/07/10 06:36:42;;;;;;;6.18;1.90;;;19.20;97.00;;;;;;5045338;28;20032;-78
2023/07/10 06:39:08;;;;;;;6.43;2.13;;;19.20;96.90;;;;;;5033828;28;20041;-78
2023/07/10 06:41:34;;;;;;;4.93;1.85;;;19.30;96.90;;;;;;5030069;28;20025;-78
2023/07/10 06:43:59;;;;;;;7.45;1.65;;;19.30;96.90;;;;;;5043682;28;20074;-79
2023/07/10 06:46:26;;;;;;;7.15;1.65;;;19.40;96.70;;;;;;5051771;28;20029;-78
2023/07/10 06:48:52;;;;;;;8.57;1.52;;;19.40;96.50;;;;;;5052553;28;20029;-79
2023/07/10 06:51:17;;;;;;;9.65;1.55;;;19.40;96.20;;;;;;5047276;28;20024;-79
2023/07/10 06:53:43;;;;;;;6.30;1.10;;;19.50;96.00;;;;;;5043353;28;20481;-78
2023/07/10 06:56:09;;;;;;;6.75;1.10;;;19.50;95.50;;;;;;5036722;28;20051;-78
2023/07/10 06:58:35;;;;;;;5.68;1.52;;;19.50;95.30;;;;;;5054415;28;20040;-78
2023/07/10 07:01:03;;;;;;;4.07;0.80;;;19.60;95.20;;;;;;5054324;28;20590;-78
2023/07/10 07:03:29;;;;;;;5.53;1.08;;;19.60;95.20;;;;;;5041989;28;20359;-78
2023/07/10 07:05:55;;;;;;;4.43;0.90;;;19.70;94.80;;;;;;5034275;28;20072;-79
2023/07/10 07:08:22;;;;;;;6.35;1.13;;;19.70;94.20;;;;;;5033073;28;20433;-78
2023/07/10 07:10:50;;;;;;;4.78;0.95;;;19.70;94.20;;;;;;5033010;28;20026;-77
2023/07/10 07:13:18;;;;;;;5.95;0.90;;;19.80;93.80;;;;;;5040888;28;20025;-78
2023/07/10 07:15:48;;;;;;;5.72;1.35;;;19.80;93.20;;;;;;5033859;28;20040;-79
2023/07/10 07:18:14;;;;;;;7.85;1.10;;;19.80;92.90;;;;;;5044067;28;20029;-79
2023/07/10 07:20:39;;;;;;;5.97;1.10;;;19.90;92.70;;;;;;5036114;28;20110;-79
2023/07/10 07:23:05;;;;;;;6.97;1.25;;;19.90;93.00;;;;;;5053201;28;20033;-79
2023/07/10 07:25:32;;;;;;;8.07;1.70;;;19.90;92.80;;;;;;5026653;28;20361;-79
2023/07/10 07:27:59;;;;;;;6.60;1.40;;;20.00;92.60;;;;;;5043184;28;20128;-78
2023/07/10 07:30:27;;;;;;;7.30;1.10;;;20.10;92.40;;;;;;5046336;28;20070;-80
2023/07/10 07:32:53;;;;;;;9.20;1.10;;;20.10;91.30;;;;;;5027513;28;20497;-80
2023/07/10 07:35:18;;;;;;;7.85;1.05;;;20.10;91.00;;;;;;5032755;28;20223;-79
2023/07/10 07:37:44;;;;;;;4.57;0.90;;;20.20;91.20;;;;;;5050582;28;20021;-80
2023/07/10 07:40:10;;;;;;;7.65;1.05;;;20.20;91.30;;;;;;5051330;28;20095;-80
2023/07/10 07:42:36;;;;;;;5.05;0.93;;;20.20;90.90;;;;;;5047755;28;20030;-80
2023/07/10 07:45:02;;;;;;;9.75;1.70;;;20.30;91.10;;;;;;5052327;28;20036;-80
2023/07/10 07:47:28;;;;;;;7.68;1.40;;;20.30;91.00;;;;;;5052622;28;20036;-80
2023/07/10 07:49:54;;;;;;;5.70;1.20;;;20.40;90.60;;;;;;5035576;28;20381;-81
2023/07/10 07:52:20;;;;;;;9.88;1.58;;;20.40;90.70;;;;;;5052995;28;20033;-81
2023/07/10 07:54:46;;;;;;;4.45;0.90;;;20.40;90.60;;;;;;5030570;28;20363;-81
2023/07/10 07:57:12;;;;;;;6.03;1.23;;;20.40;90.70;;;;;;5015751;28;20064;-79
2023/07/10 07:59:37;;;;;;;6.70;1.00;;;20.50;90.90;;;;;;5045274;28;20077;-78
2023/07/10 08:02:03;;;;;;;6.45;1.38;;;20.50;91.00;;;;;;5033072;28;20059;-79
2023/07/10 08:04:29;;;;;;;6.25;1.25;;;20.60;90.90;;;;;;5035325;28;20017;-78
2023/07/10 08:06:56;;;;;;;8.95;1.00;;;20.60;89.70;;;;;;5034595;28;20029;-78
2023/07/10 08:09:22;;;;;;;6.93;1.55;;;20.60;88.90;;;;;;5051949;28;20071;-79
2023/07/10 08:11:49;;;;;;;8.77;1.30;;;20.70;88.90;;;;;;5035299;28;20056;-77
2023/07/10 08:14:14;;;;;;;9.98;1.15;;;20.70;89.10;;;;;;5034273;28;20029;-79
2023/07/10 08:16:40;;;;;;;8.68;1.15;;;20.70;89.40;;;;;;5037054;28;20041;-78
2023/07/10 08:19:06;;;;;;;7.07;1.40;;;20.70;88.40;;;;;;5032250;28;20037;-78
2023/07/10 08:21:31;;;;;;;6.85;1.15;;;20.80;88.80;;;;;;5051936;28;20112;-78
2023/07/10 08:23:57;;;;;;;7.38;1.20;;;20.80;89.10;;;;;;5050653;28;20036;-78
2023/07/10 08:26:22;;;;;;;8.15;1.13;;;20.80;89.20;;;;;;5050309;28;20036;-78
2023/07/10 08:28:49;;;;;;;8.05;1.40;;;20.90;88.90;;;;;;5035646;28;20052;-78
2023/07/10 08:31:16;;;;;;;7.57;0.95;;;20.90;88.60;;;;;;5035357;28;20032;-79
2023/07/10 08:33:41;;;;;;;7.15;1.25;;;20.90;88.50;;;;;;5053086;28;20033;-78
2023/07/10 08:36:07;;;;;;;7.63;1.42;;;21.00;88.60;;;;;;5051795;28;20040;-79
2023/07/10 08:38:35;;;;;;;6.90;0.95;;;21.00;88.20;;;;;;5051948;28;20040;-79
2023/07/10 08:41:20;;;;;;;7.03;1.27;;;21.10;87.80;;;;;;5033365;28;20100;-78
2023/07/10 08:43:47;;;;;;;6.43;1.15;;;21.10;87.30;;;;;;5036647;28;20116;-78
2023/07/10 08:46:15;;;;;;;6.88;1.15;;;21.20;87.90;;;;;;5041045;28;20009;-79
2023/07/10 08:49:04;;;;;;;7.82;1.23;;;21.30;87.70;;;;;;5043914;28;20036;-77
2023/07/10 08:51:54;;;;;;;7.20;1.33;;;21.30;86.80;;;;;;5034222;28;20057;-78
2023/07/10 08:54:20;;;;;;;6.22;1.25;;;21.40;86.60;;;;;;5044484;28;20697;-78
2023/07/10 08:57:05;;;;;;;5.60;1.17;;;21.40;85.70;;;;;;5044903;28;20021;-78
2023/07/10 08:59:55;;;;;;;6.68;1.63;;;21.50;85.30;;;;;;5045837;28;20461;-79
2023/07/10 09:02:40;;;;;;;7.90;1.05;;;21.60;85.10;;;;;;5051728;28;20464;-80
2023/07/10 09:05:10;;;;;;;7.43;1.23;;;21.60;84.20;;;;;;5053165;28;20029;-78
2023/07/10 09:07:42;;;;;;;7.30;1.77;;;21.70;84.40;;;;;;5055216;28;20031;-79
2023/07/10 09:10:16;;;;;;;8.40;1.55;;;21.70;83.50;;;;;;5055260;28;20492;-79
2023/07/10 09:12:47;;;;;;;7.05;1.20;;;21.80;83.00;;;;;;5049036;28;20021;-79
2023/07/10 09:15:25;;;;;;;7.05;1.15;;;21.90;83.20;;;;;;5043847;28;20017;-77
2023/07/10 09:18:22;;;;;;;7.22;1.42;;;22.00;83.10;;;;;;5038447;28;20512;-77
2023/07/10 09:20:57;;;;;;;9.00;1.20;;;22.10;82.70;;;;;;5054995;28;20079;-79
2023/07/10 09:23:34;;;;;;;6.72;1.17;;;22.20;82.90;;;;;;5054951;28;20120;-78
2023/07/10 09:26:09;;;;;;;4.38;0.95;;;22.30;82.60;;;;;;5055431;28;20388;-76
2023/07/10 09:28:41;;;;;;;6.35;1.13;;;22.40;81.80;;;;;;5036611;28;20025;-75
2023/07/10 09:31:35;;;;;;;4.82;1.02;;;22.50;81.40;;;;;;5044442;28;20053;-75
2023/07/10 09:34:01;;;;;;;6.95;1.27;;;22.60;80.60;;;;;;5045256;28;20037;-77
2023/07/10 09:36:27;;;;;;;6.35;1.02;;;22.60;80.00;;;;;;5020278;28;20474;-77
2023/07/10 09:38:53;;;;;;;6.63;1.17;;;22.70;78.70;;;;;;5047421;28;20048;-77
2023/07/10 09:41:21;;;;;;;6.88;1.48;;;22.70;77.60;;;;;;5054642;28;20024;-77
2023/07/10 09:43:56;;;;;;;8.15;1.10;;;22.70;76.50;;;;;;5054621;28;20488;-76
2023/07/10 09:46:23;;;;;;;4.72;0.82;;;22.80;76.90;;;;;;5054726;28;20029;-77
2023/07/10 09:48:51;;;;;;;4.90;0.82;;;22.80;77.10;;;;;;5054535;28;20133;-77
2023/07/10 09:51:17;;;;;;;8.18;1.40;;;22.90;76.30;;;;;;5048062;28;20175;-78
2023/07/10 09:53:48;;;;;;;11.88;1.20;;;23.00;75.60;;;;;;5042537;28;20029;-77
2023/07/10 09:56:29;;;;;;;6.80;1.13;;;23.00;75.40;;;;;;5045459;28;20037;-79
2023/07/10 09:58:56;;;;;;;10.18;1.48;;;23.10;75.00;;;;;;5035467;28;20083;-77
2023/07/10 10:01:30;;;;;;;6.22;0.70;;;23.10;74.90;;;;;;5035485;28;20045;-77
2023/07/10 10:03:55;;;;;;;;;;;23.20;75.00;;;;;;5036039;28;20072;-77
2023/07/10 10:06:26;;;;;;;5.47;0.90;;;23.30;73.30;;;;;;5035576;28;19909;-77
2023/07/10 10:08:52;;;;;;;5.97;1.20;;;23.40;73.90;;;;;;5048293;28;20044;-77
2023/07/10 10:11:31;;;;;;;6.13;1.08;;;23.40;73.10;;;;;;5049091;28;20108;-77
2023/07/10 10:14:00;;;;;;;7.57;0.90;;;23.50;72.90;;;;;;5051507;28;20021;-77
2023/07/10 10:16:51;;;;;;;7.30;1.00;;;23.50;73.10;;;;;;5054030;28;20028;-77
2023/07/10 10:19:27;;;;;;;8.27;1.10;;;23.60;72.20;;;;;;5033918;28;20026;-77
2023/07/10 10:21:53;;;;;;;6.90;1.20;;;23.70;71.90;;;;;;5033779;28;20013;-77
2023/07/10 10:24:19;;;;;;;6.80;1.13;;;23.80;71.20;;;;;;5046205;28;20036;-78
2023/07/10 10:27:29;;;;;;;7.18;1.10;;;23.80;70.50;;;;;;5035119;28;20109;-76
2023/07/10 10:30:15;;;;;;;5.53;0.80;;;23.90;70.30;;;;;;5065286;28;20046;-78
2023/07/10 10:33:20;;;;;;;6.95;0.77;;;24.00;69.70;;;;;;5039408;28;20055;-77
2023/07/10 10:36:00;;;;;;;5.88;1.00;;;24.10;69.40;;;;;;5023884;28;20482;-77
2023/07/10 10:38:51;;;;;;;6.55;0.98;;;24.20;69.70;;;;;;5034983;28;20021;-77
2023/07/10 10:41:56;;;;;;;6.32;1.10;;;24.30;69.30;;;;;;5034954;28;20367;-77
2023/07/10 10:44:52;;;;;;;7.03;1.52;;;24.60;68.00;;;;;;5034600;28;20393;-78
2023/07/10 10:47:40;;;;;;;8.30;1.25;;;24.80;66.70;;;;;;5042199;28;20025;-78
2023/07/10 10:50:24;;;;;;;5.63;1.10;;;25.00;67.00;;;;;;5043186;28;20067;-79
2023/07/10 10:53:21;;;;;;;7.32;1.20;;;25.30;65.30;;;;;;5040296;28;20381;-78
2023/07/10 10:56:16;;;;;;;5.22;0.98;;;25.60;64.10;;;;;;5033484;28;20220;-78
2023/07/10 10:58:57;;;;;;;8.32;1.30;;;25.90;63.90;;;;;;5033396;28;20025;-77
2023/07/10 11:01:45;;;;;;;5.50;0.70;;;26.40;63.90;;;;;;5033318;28;20061;-77
2023/07/10 11:04:25;;;;;;;6.60;1.00;;;26.70;63.50;;;;;;5043442;28;20017;-79
2023/07/10 11:06:54;;;;;;;5.63;1.30;;;26.60;63.40;;;;;;5054532;28;20056;-79
2023/07/10 11:09:31;;;;;;;6.90;0.93;;;26.70;63.40;;;;;;5054054;28;20477;-79
2023/07/10 11:11:59;;;;;;;4.00;0.73;;;26.80;63.30;;;;;;5050773;28;20033;-78
2023/07/10 11:14:27;;;;;;;5.15;0.98;;;26.80;63.20;;;;;;5041196;28;20024;-80
2023/07/10 11:16:54;;;;;;;3.80;0.80;;;26.90;62.70;;;;;;5032754;28;20072;-79
2023/07/10 11:19:29;;;;;;;4.20;0.95;;;26.80;62.60;;;;;;5048994;28;20029;-79
2023/07/10 11:21:55;;;;;;;5.07;1.02;;;26.80;62.60;;;;;;5033304;28;20045;-80
2023/07/10 11:24:23;;;;;;;5.15;1.08;;;26.90;62.50;;;;;;5041583;28;20072;-79
2023/07/10 11:26:54;;;;;;;5.82;1.25;;;27.00;62.30;;;;;;5051764;28;20068;-79
2023/07/10 11:29:45;;;;;;;4.38;0.85;;;27.10;62.10;;;;;;5051729;28;20043;-80
2023/07/10 11:32:22;;;;;;;7.63;0.80;;;27.10;61.20;;;;;;5051987;28;20020;-78
2023/07/10 11:34:57;;;;;;;5.65;0.68;;;27.10;61.60;;;;;;5051960;28;20029;-79
2023/07/10 11:37:47;;;;;;;4.63;0.65;;;27.10;61.80;;;;;;5043103;28;20056;-80
2023/07/10 11:40:27;;;;;;;2.78;0.60;;;27.20;61.40;;;;;;5042940;28;20017;-77
2023/07/10 11:43:25;;;;;;;3.63;0.60;;;27.30;61.50;;;;;;5043287;28;20033;-80
2023/07/10 11:46:14;;;;;;;2.63;0.57;;;27.40;61.00;;;;;;5049195;28;20072;-80
2023/07/10 11:48:55;;;;;;;5.05;0.90;;;27.50;60.90;;;;;;5046684;28;20035;-77
2023/07/10 11:51:33;;;;;;;7.75;1.23;;;27.70;60.70;;;;;;5052350;28;20553;-79
2023/07/10 11:54:04;;;;;;;7.28;0.77;;;27.80;60.30;;;;;;5042391;28;20049;-81
2023/07/10 11:56:31;;;;;;;4.40;0.70;;;27.80;59.80;;;;;;5041837;28;20060;-81
2023/07/10 11:59:14;;;;;;;5.50;1.30;;;27.80;59.40;;;;;;5052286;28;20079;-80
2023/07/10 12:01:41;;;;;;;3.93;0.67;;;27.80;58.90;;;;;;5051966;28;20576;-79
2023/07/10 12:04:14;;;;;;;4.00;0.77;;;27.90;58.70;;;;;;5052705;28;20114;-79
2023/07/10 12:06:44;;;;;;;5.45;1.25;;;28.00;58.50;;;;;;5050764;28;20021;-79
2023/07/10 12:09:09;;;;;;;7.65;1.10;;;28.00;58.40;;;;;;5052218;28;20388;-79
2023/07/10 12:11:38;;;;;;;3.50;0.90;;;28.00;58.20;;;;;;5051383;28;20032;-79
2023/07/10 12:14:16;;;;;;;4.97;0.80;;;28.10;57.80;;;;;;5051973;28;20029;-81
2023/07/10 12:16:48;;;;;;;5.63;0.52;;;28.20;57.40;;;;;;5052597;28;20037;-83
2023/07/10 12:19:17;;;;;;;4.20;0.98;;;28.40;57.60;;;;;;5052035;28;20473;-83
2023/07/10 12:21:43;;;;;;;5.63;0.88;;;28.50;57.50;;;;;;5034887;28;20083;-82
2023/07/10 12:24:13;;;;;;;6.00;1.10;;;28.70;57.30;;;;;;5015795;28;20385;-82
2023/07/10 12:26:39;;;;;;;4.20;0.60;;;28.90;57.10;;;;;;5031828;28;20013;-82
2023/07/10 12:29:11;;;;;;;7.90;1.25;;;29.10;56.70;;;;;;5031809;28;20030;-81
2023/07/10 12:31:39;;;;;;;3.92;0.93;;;29.10;56.00;;;;;;5041395;28;20051;-82
2023/07/10 12:34:05;;;;;;;6.20;0.80;;;29.10;55.60;;;;;;5040557;28;20029;-82
2023/07/10 12:36:38;;;;;;;4.13;0.80;;;29.00;55.60;;;;;;5039455;28;20036;-82
2023/07/10 12:39:07;;;;;;;4.93;0.75;;;29.00;56.20;;;;;;5043423;28;20088;-81
2023/07/10 12:41:41;;;;;;;8.02;1.00;;;29.20;55.80;;;;;;5042378;28;20032;-80
2023/07/10 12:44:16;;;;;;;4.32;0.73;;;29.40;55.50;;;;;;5035734;28;20033;-80
2023/07/10 12:46:42;;;;;;;6.22;0.80;;;29.60;55.40;;;;;;5037135;28;20076;-81
2023/07/10 12:49:14;;;;;;;4.18;0.75;;;29.90;55.10;;;;;;5027432;28;20481;-79
2023/07/10 12:51:45;;;;;;;5.33;0.80;;;30.10;54.40;;;;;;5056496;28;20033;-79
2023/07/10 12:54:23;;;;;;;6.82;0.90;;;30.10;54.20;;;;;;5048015;28;20059;-80
2023/07/10 12:56:51;;;;;;;4.80;0.80;;;30.20;53.80;;;;;;5036750;28;20064;-80